createdAt,value
2023-03-06T00:01:58.935Z,53.00
2023-03-06T00:04:25.516Z,48.03
2023-03-06T00:06:52.112Z,49.85
2023-03-06T00:09:18.593Z,46.88
2023-03-06T00:11:45.071Z,50.22
2023-03-06T00:14:11.551Z,48.90
2023-03-06T00:16:38.069Z,62.10
2023-03-06T00:19:04.540Z,67.00
2023-03-06T00:21:31.027Z,70.53
2023-03-06T00:23:57.521Z,61.13
2023-03-06T00:26:23.972Z,63.05
2023-03-06T00:28:50.439Z,59.33
2023-03-06T00:31:16.928Z,56.67
2023-03-06T00:33:43.635Z,53.97
2023-03-06T00:36:10.221Z,50.05
2023-03-06T00:38:37.338Z,52.45
2023-03-06T00:41:07.722Z,42.90
2023-03-06T00:43:34.203Z,53.05
2023-03-06T00:46:00.708Z,52.08
2023-03-06T00:48:27.263Z,51.80
2023-03-06T00:50:53.806Z,51.53
2023-03-06T00:53:20.288Z,59.78
2023-03-06T00:55:46.730Z,70.68
2023-03-06T00:58:13.449Z,75.13
2023-03-06T01:00:40.017Z,76.75
2023-03-06T01:03:06.522Z,77.72
2023-03-06T01:05:34.321Z,79.45
2023-03-06T01:08:01.163Z,90.13
2023-03-06T01:10:27.840Z,73.85
2023-03-06T01:12:54.713Z,82.90
2023-03-06T01:15:21.603Z,96.95
2023-03-06T01:17:48.106Z,94.07
2023-03-06T01:20:16.387Z,89.22
2023-03-06T01:22:42.976Z,67.15
2023-03-06T01:25:09.702Z,66.30
2023-03-06T01:27:36.153Z,63.60
2023-03-06T01:30:03.012Z,64.35
2023-03-06T01:32:30.713Z,63.78
2023-03-06T01:34:57.489Z,59.63
2023-03-06T01:37:23.986Z,60.20
2023-03-06T01:39:50.526Z,57.33
2023-03-06T01:42:16.950Z,65.68
2023-03-06T01:45:07.033Z,76.43
2023-03-06T01:47:33.533Z,67.22
2023-03-06T01:50:01.224Z,59.20
2023-03-06T01:52:30.790Z,45.63
2023-03-06T01:55:00.509Z,56.72
2023-03-06T01:57:35.347Z,53.58
2023-03-06T02:00:09.151Z,42.63
2023-03-06T02:02:36.009Z,54.20
2023-03-06T02:05:03.459Z,45.30
2023-03-06T02:07:30.227Z,49.60
2023-03-06T02:09:56.758Z,42.65
2023-03-06T02:12:23.869Z,45.50
2023-03-06T02:14:50.720Z,47.15
2023-03-06T02:17:18.256Z,48.42
2023-03-06T02:20:00.225Z,48.80
2023-03-06T02:22:36.155Z,42.03
2023-03-06T02:25:12.158Z,48.25
2023-03-06T02:27:38.656Z,47.00
2023-03-06T02:30:06.592Z,52.42
2023-03-06T02:32:33.160Z,47.78
2023-03-06T02:34:59.675Z,46.92
2023-03-06T02:37:27.595Z,51.03
2023-03-06T02:40:00.832Z,59.22
2023-03-06T02:42:28.993Z,53.05
2023-03-06T02:44:56.712Z,57.08
2023-03-06T02:47:23.278Z,52.78
2023-03-06T02:49:49.848Z,56.28
2023-03-06T02:52:16.310Z,56.08
2023-03-06T02:54:42.811Z,69.82
2023-03-06T02:57:09.346Z,72.25
2023-03-06T02:59:35.858Z,64.20
2023-03-06T03:02:02.422Z,65.35
2023-03-06T03:04:28.871Z,63.28
2023-03-06T03:06:55.336Z,59.13
2023-03-06T03:09:21.968Z,51.55
2023-03-06T03:11:48.433Z,47.00
2023-03-06T03:14:16.714Z,52.45
2023-03-06T03:16:43.155Z,56.85
2023-03-06T03:19:09.588Z,57.22
2023-03-06T03:21:36.326Z,66.22
2023-03-06T03:24:03.546Z,56.40
2023-03-06T03:26:30.052Z,60.97
2023-03-06T03:28:56.494Z,55.92
2023-03-06T03:31:23.003Z,59.10
2023-03-06T03:33:49.528Z,56.83
2023-03-06T03:36:16.030Z,51.00
2023-03-06T03:38:42.514Z,59.28
2023-03-06T03:41:09.010Z,54.15
2023-03-06T03:43:35.452Z,51.10
2023-03-06T03:46:02.010Z,59.47
2023-03-06T03:48:28.610Z,60.00
2023-03-06T03:50:55.114Z,53.42
2023-03-06T03:53:21.607Z,58.13
2023-03-06T03:55:48.646Z,50.30
2023-03-06T03:58:15.167Z,57.30
2023-03-06T04:00:41.629Z,57.15
2023-03-06T04:03:08.127Z,53.35
2023-03-06T04:05:35.065Z,51.15
2023-03-06T04:08:03.171Z,48.47
2023-03-06T04:12:57.723Z,55.17
2023-03-06T04:15:24.245Z,48.95
2023-03-06T04:17:50.775Z,55.05
2023-03-06T04:20:17.939Z,48.95
2023-03-06T04:22:44.569Z,45.87
2023-03-06T04:25:11.068Z,57.85
2023-03-06T04:27:37.529Z,55.33
2023-03-06T04:30:04.877Z,59.17
2023-03-06T04:32:31.522Z,49.97
2023-03-06T04:34:58.029Z,59.38
2023-03-06T04:37:25.649Z,77.85
2023-03-06T04:39:52.131Z,102.43
2023-03-06T04:42:18.672Z,100.70
2023-03-06T04:44:45.220Z,78.68
2023-03-06T04:47:12.493Z,72.00
2023-03-06T04:49:39.306Z,74.47
2023-03-06T04:52:05.956Z,106.00
2023-03-06T04:54:32.444Z,74.90
2023-03-06T04:57:00.603Z,70.50
2023-03-06T05:01:53.504Z,137.98
2023-03-06T05:04:20.035Z,141.80
2023-03-06T05:06:46.587Z,149.27
2023-03-06T05:09:13.167Z,100.50
2023-03-06T05:11:39.614Z,82.80
2023-03-06T05:14:06.166Z,82.28
2023-03-06T05:16:32.677Z,81.05
2023-03-06T05:18:59.136Z,79.40
2023-03-06T05:21:25.585Z,81.32
2023-03-06T05:23:52.071Z,79.75
2023-03-06T05:26:18.539Z,85.25
2023-03-06T05:28:45.029Z,92.13
2023-03-06T05:31:11.720Z,97.47
2023-03-06T05:33:38.255Z,118.10
2023-03-06T05:36:04.954Z,146.05
2023-03-06T05:38:33.805Z,147.35
2023-03-06T05:41:00.315Z,138.10
2023-03-06T05:43:26.883Z,92.63
2023-03-06T05:46:00.336Z,88.63
2023-03-06T05:48:26.803Z,80.05
2023-03-06T05:50:59.982Z,74.97
2023-03-06T05:53:26.957Z,84.22
2023-03-06T05:56:01.520Z,77.45
2023-03-06T05:58:29.115Z,73.57
2023-03-06T06:00:55.702Z,80.82
2023-03-06T06:03:22.755Z,94.00
2023-03-06T06:05:49.393Z,86.57
2023-03-06T06:08:15.978Z,109.55
2023-03-06T06:10:42.427Z,103.68
2023-03-06T06:13:09.040Z,88.40
2023-03-06T06:15:35.624Z,98.93
2023-03-06T06:18:02.168Z,100.60
2023-03-06T06:20:28.671Z,99.03
2023-03-06T06:22:55.298Z,87.50
2023-03-06T06:25:21.737Z,97.38
2023-03-06T06:27:48.268Z,79.43
2023-03-06T06:30:14.816Z,119.15
2023-03-06T06:32:41.388Z,125.50
2023-03-06T06:35:08.023Z,54.88
2023-03-06T06:37:34.496Z,47.65
2023-03-06T06:40:00.966Z,46.60
2023-03-06T06:42:35.092Z,48.28
2023-03-06T06:45:05.171Z,48.28
2023-03-06T06:47:33.056Z,43.35
2023-03-06T06:49:59.937Z,49.80
2023-03-06T06:52:26.440Z,47.10
2023-03-06T06:54:53.054Z,43.70
2023-03-06T06:57:19.901Z,54.45
2023-03-06T06:59:46.575Z,52.88
2023-03-06T07:02:13.777Z,56.80
2023-03-06T07:04:52.191Z,62.20
2023-03-06T07:07:24.754Z,83.53
2023-03-06T07:09:52.021Z,68.10
2023-03-06T07:12:18.505Z,47.53
2023-03-06T07:14:44.987Z,48.72
2023-03-06T07:17:11.470Z,40.97
2023-03-06T07:19:38.749Z,43.60
2023-03-06T07:22:06.086Z,68.25
2023-03-06T07:24:32.644Z,42.60
2023-03-06T07:26:59.170Z,36.65
2023-03-06T07:29:25.880Z,29.25
2023-03-06T07:31:52.356Z,31.70
2023-03-06T07:34:18.833Z,28.30
2023-03-06T07:36:45.400Z,24.55
2023-03-06T07:39:11.873Z,25.02
2023-03-06T07:41:38.375Z,31.40
2023-03-06T07:44:04.895Z,23.65
2023-03-06T07:46:31.494Z,33.10
2023-03-06T07:48:58.323Z,30.05
2023-03-06T07:51:24.849Z,26.52
2023-03-06T07:53:51.366Z,26.02
2023-03-06T07:56:17.887Z,34.38
2023-03-06T07:58:45.912Z,23.23
2023-03-06T08:01:16.793Z,27.92
2023-03-06T08:03:43.573Z,29.17
2023-03-06T08:06:17.845Z,30.85
2023-03-06T08:08:45.854Z,29.30
2023-03-06T08:11:14.188Z,31.05
2023-03-06T08:16:07.605Z,30.48
2023-03-06T08:18:34.141Z,24.98
2023-03-06T08:21:01.299Z,24.73
2023-03-06T08:23:27.768Z,36.15
2023-03-06T08:26:01.225Z,24.20
2023-03-06T08:28:28.672Z,29.88
2023-03-06T08:30:56.002Z,32.22
2023-03-06T08:33:22.839Z,37.70
2023-03-06T08:35:49.334Z,43.55
2023-03-06T08:38:15.935Z,43.78
2023-03-06T08:40:42.442Z,30.52
2023-03-06T08:43:10.950Z,31.98
2023-03-06T08:45:39.730Z,24.77
2023-03-06T08:48:06.297Z,25.30
2023-03-06T08:50:32.852Z,28.88
2023-03-06T08:52:59.315Z,26.92
2023-03-06T08:55:26.088Z,29.63
2023-03-06T08:57:52.536Z,31.75
2023-03-06T09:00:19.249Z,28.73
2023-03-06T09:02:45.721Z,28.50
2023-03-06T09:05:12.255Z,21.05
2023-03-06T09:07:38.704Z,28.08
2023-03-06T09:10:05.359Z,22.17
2023-03-06T09:12:37.388Z,23.05
2023-03-06T09:15:13.916Z,23.38
2023-03-06T09:17:40.562Z,19.92
2023-03-06T09:20:10.477Z,23.83
2023-03-06T09:22:37.412Z,23.10
2023-03-06T09:25:04.874Z,30.83
2023-03-06T09:27:31.587Z,20.73
2023-03-06T09:29:58.056Z,23.85
2023-03-06T09:32:24.531Z,21.35
2023-03-06T09:34:51.055Z,22.77
2023-03-06T09:37:17.901Z,19.67
2023-03-06T09:39:44.545Z,23.45
2023-03-06T09:42:18.643Z,19.13
2023-03-06T09:44:47.486Z,18.10
2023-03-06T09:47:26.155Z,24.92
2023-03-06T09:50:13.933Z,21.35
2023-03-06T09:52:55.430Z,21.85
2023-03-06T09:55:24.108Z,20.50
2023-03-06T09:57:51.266Z,23.63
2023-03-06T10:00:38.955Z,20.23
2023-03-06T10:03:05.461Z,21.85
2023-03-06T10:05:35.174Z,23.55
2023-03-06T10:08:24.664Z,22.10
2023-03-06T10:10:55.924Z,19.38
2023-03-06T10:13:32.811Z,27.27
2023-03-06T10:16:03.953Z,22.73
2023-03-06T10:18:30.857Z,21.58
2023-03-06T10:21:18.791Z,19.45
2023-03-06T10:23:58.322Z,18.90
2023-03-06T10:29:09.565Z,21.80
2023-03-06T10:31:36.475Z,25.15
2023-03-06T10:34:08.978Z,25.15
2023-03-06T10:36:35.577Z,18.88
2023-03-06T10:39:04.860Z,21.38
2023-03-06T10:41:32.774Z,25.65
2023-03-06T10:44:05.418Z,24.20
2023-03-06T10:46:42.607Z,20.13
2023-03-06T10:49:15.149Z,19.50
2023-03-06T10:51:55.077Z,20.13
2023-03-06T10:54:21.603Z,27.10
2023-03-06T10:56:48.226Z,23.42
2023-03-06T10:59:29.466Z,22.42
2023-03-06T11:01:57.398Z,20.65
2023-03-06T11:04:26.368Z,21.52
2023-03-06T11:07:06.859Z,20.52
2023-03-06T11:09:33.640Z,19.63
2023-03-06T11:12:18.796Z,17.48
2023-03-06T11:14:45.361Z,24.60
2023-03-06T11:17:32.185Z,24.80
2023-03-06T11:20:18.336Z,30.80
2023-03-06T11:22:49.065Z,19.20
2023-03-06T11:25:16.834Z,19.23
2023-03-06T11:27:44.667Z,24.88
2023-03-06T11:30:23.830Z,20.50
2023-03-06T11:32:56.017Z,21.27
2023-03-06T11:35:45.898Z,17.25
2023-03-06T11:38:16.837Z,25.13
2023-03-06T11:40:46.454Z,20.98
2023-03-06T11:43:25.405Z,21.10
2023-03-06T11:48:21.922Z,27.38
2023-03-06T11:50:49.843Z,23.55
2023-03-06T11:53:17.655Z,21.75
2023-03-06T11:55:51.839Z,25.95
2023-03-06T11:58:36.870Z,19.08
2023-03-06T12:01:06.314Z,19.58
2023-03-06T12:03:43.429Z,28.15
2023-03-06T12:06:28.570Z,26.85
2023-03-06T12:08:55.047Z,16.33
2023-03-06T12:11:21.535Z,21.42
2023-03-06T12:14:04.215Z,20.83
2023-03-06T12:16:43.195Z,20.90
2023-03-06T12:19:45.026Z,20.30
2023-03-06T12:22:31.223Z,25.17
2023-03-06T12:25:04.072Z,21.70
2023-03-06T12:27:38.467Z,19.70
2023-03-06T12:30:23.624Z,17.10
2023-03-06T12:32:59.805Z,26.13
2023-03-06T12:35:26.294Z,19.20
2023-03-06T12:37:55.567Z,22.75
2023-03-06T12:40:37.170Z,24.80
2023-03-06T12:43:21.780Z,18.45
2023-03-06T12:45:49.784Z,19.83
2023-03-06T12:48:20.296Z,18.05
2023-03-06T12:50:47.153Z,19.05
2023-03-06T12:53:16.187Z,20.42
2023-03-06T12:55:45.293Z,17.60
2023-03-06T12:58:30.289Z,21.05
2023-03-06T13:01:03.671Z,18.83
2023-03-06T13:03:30.612Z,17.63
2023-03-06T13:06:15.793Z,16.58
2023-03-06T13:08:50.958Z,19.70
2023-03-06T13:11:28.942Z,19.05
2023-03-06T13:13:57.663Z,17.17
2023-03-06T13:16:31.419Z,18.13
2023-03-06T13:18:58.036Z,17.10
2023-03-06T13:21:44.356Z,28.00
2023-03-06T13:24:24.168Z,18.83
2023-03-06T13:26:58.025Z,25.27
2023-03-06T13:29:36.802Z,17.58
2023-03-06T13:34:34.699Z,17.98
2023-03-06T13:37:13.456Z,19.73
2023-03-06T13:39:54.930Z,17.85
2023-03-06T13:42:30.435Z,20.40
2023-03-06T13:44:57.997Z,17.00
2023-03-06T13:48:01.354Z,17.83
2023-03-06T13:50:29.273Z,18.40
2023-03-06T13:53:14.508Z,21.17
2023-03-06T13:55:57.865Z,23.13
2023-03-06T13:58:30.310Z,15.77
2023-03-06T14:01:06.772Z,20.42
2023-03-06T14:03:47.702Z,24.23
2023-03-06T14:06:32.844Z,19.58
2023-03-06T14:08:59.538Z,22.83
2023-03-06T14:11:26.451Z,16.25
2023-03-06T14:13:54.382Z,18.00
2023-03-06T14:16:27.848Z,20.63
2023-03-06T14:18:55.924Z,21.55
2023-03-06T14:21:27.832Z,21.55
2023-03-06T14:24:00.387Z,28.63
2023-03-06T14:26:28.661Z,20.40
2023-03-06T14:28:56.757Z,30.20
2023-03-06T14:31:24.566Z,22.67
2023-03-06T14:33:58.618Z,19.48
2023-03-06T14:36:44.745Z,21.70
2023-03-06T14:39:14.516Z,24.05
2023-03-06T14:41:40.996Z,26.00
2023-03-06T14:44:18.102Z,29.42
2023-03-06T14:46:45.948Z,20.13
2023-03-06T14:49:13.957Z,22.80
2023-03-06T14:51:43.158Z,20.67
2023-03-06T14:54:14.087Z,25.80
2023-03-06T14:56:42.198Z,27.83
2023-03-06T14:59:12.182Z,26.13
2023-03-06T15:01:40.744Z,27.15
2023-03-06T15:04:23.785Z,25.70
2023-03-06T15:06:50.418Z,28.30
2023-03-06T15:09:20.911Z,29.13
2023-03-06T15:11:51.006Z,22.23
2023-03-06T15:14:18.926Z,26.80
2023-03-06T15:16:45.489Z,29.88
2023-03-06T15:19:19.395Z,26.38
2023-03-06T15:21:50.651Z,30.30
2023-03-06T15:24:28.884Z,27.75
2023-03-06T15:26:55.820Z,30.73
2023-03-06T15:29:23.181Z,33.60
2023-03-06T15:31:49.740Z,31.07
2023-03-06T15:34:18.681Z,75.43
2023-03-06T15:36:49.318Z,50.78
2023-03-06T15:39:33.783Z,81.00
2023-03-06T15:42:13.354Z,45.05
2023-03-06T15:44:40.054Z,54.85
2023-03-06T15:47:09.570Z,49.78
2023-03-06T15:49:37.600Z,79.60
2023-03-06T15:52:04.905Z,55.13
2023-03-06T15:54:32.918Z,65.97
2023-03-06T15:59:27.435Z,39.53
2023-03-06T16:01:54.038Z,59.20
2023-03-06T16:04:20.680Z,101.35
2023-03-06T16:06:47.190Z,86.40
2023-03-06T16:09:14.216Z,95.25
2023-03-06T16:11:44.357Z,46.03
2023-03-06T16:14:19.012Z,37.67
2023-03-06T16:16:45.841Z,27.45
2023-03-06T16:19:25.384Z,21.27
2023-03-06T16:21:52.749Z,20.45
2023-03-06T16:24:19.302Z,21.77
2023-03-06T16:26:47.261Z,18.65
2023-03-06T16:29:21.587Z,16.05
2023-03-06T16:31:48.700Z,16.73
2023-03-06T16:34:15.532Z,19.73
2023-03-06T16:36:42.044Z,22.55
2023-03-06T16:39:19.388Z,17.40
2023-03-06T16:41:46.017Z,21.00
2023-03-06T16:44:12.714Z,32.90
2023-03-06T16:46:40.802Z,72.90
2023-03-06T16:49:07.322Z,41.80
2023-03-06T16:51:34.226Z,30.48
2023-03-06T16:54:00.850Z,28.52
2023-03-06T16:56:27.394Z,41.97
2023-03-06T16:58:53.851Z,98.82
2023-03-06T17:01:20.368Z,128.95
2023-03-06T17:03:47.026Z,142.20
2023-03-06T17:06:15.186Z,114.13
2023-03-06T17:08:41.821Z,97.75
2023-03-06T17:11:08.632Z,40.72
2023-03-06T17:13:36.435Z,40.22
2023-03-06T17:16:03.028Z,41.33
2023-03-06T17:18:29.824Z,22.38
2023-03-06T17:20:57.051Z,47.38
2023-03-06T17:23:27.238Z,38.40
2023-03-06T17:26:02.089Z,23.73
2023-03-06T17:28:28.567Z,17.70
2023-03-06T17:30:55.015Z,18.65
2023-03-06T17:33:21.508Z,19.88
2023-03-06T17:35:47.995Z,23.60
2023-03-06T17:38:14.464Z,20.75
2023-03-06T17:40:40.953Z,20.08
2023-03-06T17:43:07.439Z,22.58
2023-03-06T17:45:35.728Z,22.88
2023-03-06T17:50:28.658Z,18.95
2023-03-06T17:52:55.187Z,17.40
2023-03-06T17:55:21.863Z,15.38
2023-03-06T17:57:48.302Z,18.98
2023-03-06T18:00:15.061Z,18.60
2023-03-06T18:02:41.552Z,23.67
2023-03-06T18:05:08.386Z,48.50
2023-03-06T18:07:34.915Z,58.10
2023-03-06T18:10:01.396Z,31.45
2023-03-06T18:12:27.958Z,38.08
2023-03-06T18:14:54.636Z,28.60
2023-03-06T18:17:21.090Z,41.78
2023-03-06T18:19:47.890Z,33.88
2023-03-06T18:22:14.390Z,65.07
2023-03-06T18:24:41.153Z,62.42
2023-03-06T18:27:07.657Z,37.85
2023-03-06T18:29:34.192Z,67.75
2023-03-06T18:32:02.502Z,74.00
2023-03-06T18:34:29.102Z,81.68
2023-03-06T18:36:57.042Z,85.43
2023-03-06T18:39:23.621Z,76.20
2023-03-06T18:41:50.151Z,46.60
2023-03-06T18:44:17.711Z,37.90
2023-03-06T18:46:44.283Z,35.85
2023-03-06T18:49:11.403Z,35.38
2023-03-06T18:51:38.032Z,25.90
2023-03-06T18:54:05.623Z,29.60
2023-03-06T18:56:32.295Z,25.25
2023-03-06T18:59:05.543Z,21.27
2023-03-06T19:01:32.421Z,38.97
2023-03-06T19:04:01.235Z,62.88
2023-03-06T19:06:28.813Z,72.63
2023-03-06T19:08:58.795Z,96.22
2023-03-06T19:11:26.893Z,47.08
2023-03-06T19:13:53.613Z,46.20
2023-03-06T19:16:24.287Z,49.25
2023-03-06T19:18:51.332Z,35.00
2023-03-06T19:21:19.113Z,28.42
2023-03-06T19:23:45.650Z,28.08
2023-03-06T19:26:12.555Z,22.70
2023-03-06T19:28:40.082Z,28.15
2023-03-06T19:31:09.646Z,35.80
2023-03-06T19:33:37.896Z,32.28
2023-03-06T19:36:05.458Z,33.40
2023-03-06T19:38:32.288Z,25.55
2023-03-06T19:40:58.915Z,26.83
2023-03-06T19:43:25.476Z,30.52
2023-03-06T19:45:52.216Z,30.42
2023-03-06T19:48:18.728Z,29.58
2023-03-06T19:50:45.570Z,28.40
2023-03-06T19:53:12.231Z,34.08
2023-03-06T19:55:39.167Z,29.83
2023-03-06T19:58:06.173Z,38.03
2023-03-06T20:00:33.881Z,36.95
2023-03-06T20:03:00.460Z,27.42
2023-03-06T20:05:26.985Z,27.60
2023-03-06T20:07:53.556Z,24.83
2023-03-06T20:10:20.072Z,32.42
2023-03-06T20:12:46.588Z,29.30
2023-03-06T20:15:13.141Z,38.45
2023-03-06T20:17:44.969Z,36.30
2023-03-06T20:20:12.002Z,24.00
2023-03-06T20:22:38.608Z,37.33
2023-03-06T20:25:05.370Z,33.20
2023-03-06T20:27:31.890Z,31.33
2023-03-06T20:29:58.326Z,27.95
2023-03-06T20:32:24.889Z,30.20
2023-03-06T20:34:51.384Z,34.25
2023-03-06T20:37:17.825Z,28.08
2023-03-06T20:39:44.337Z,25.85
2023-03-06T20:42:10.780Z,36.05
2023-03-06T20:44:37.257Z,40.42
2023-03-06T20:47:03.740Z,27.20
2023-03-06T20:49:30.271Z,32.13
2023-03-06T20:51:56.995Z,30.83
2023-03-06T20:54:23.566Z,33.15
2023-03-06T20:56:50.458Z,50.65
2023-03-06T20:59:17.116Z,64.22
2023-03-06T21:01:44.882Z,37.45
2023-03-06T21:04:13.853Z,25.58
2023-03-06T21:06:42.019Z,27.85
2023-03-06T21:09:08.478Z,30.10
2023-03-06T21:11:35.074Z,24.15
2023-03-06T21:14:01.567Z,26.13
2023-03-06T21:16:28.293Z,29.25
2023-03-06T21:18:55.364Z,26.52
2023-03-06T21:21:23.130Z,35.28
2023-03-06T21:23:49.941Z,31.67
2023-03-06T21:26:17.927Z,22.30
2023-03-06T21:28:44.421Z,25.15
2023-03-06T21:31:11.835Z,23.20
2023-03-06T21:33:38.791Z,25.55
2023-03-06T21:36:05.428Z,28.80
2023-03-06T21:38:31.920Z,23.52
2023-03-06T21:41:06.427Z,28.95
2023-03-06T21:43:33.016Z,24.70
2023-03-06T21:45:59.569Z,28.70
2023-03-06T21:48:26.159Z,27.83
2023-03-06T21:50:52.710Z,26.42
2023-03-06T21:53:19.138Z,24.63
2023-03-06T21:55:45.677Z,29.50
2023-03-06T21:58:12.134Z,25.45
2023-03-06T22:00:38.697Z,27.55
2023-03-06T22:03:05.306Z,25.38
2023-03-06T22:05:34.828Z,32.17
2023-03-06T22:08:01.302Z,25.88
2023-03-06T22:10:28.229Z,23.95
2023-03-06T22:12:54.684Z,22.60
2023-03-06T22:15:21.945Z,26.25
2023-03-06T22:17:48.759Z,33.10
2023-03-06T22:20:15.475Z,30.60
2023-03-06T22:22:42.342Z,25.52
2023-03-06T22:25:09.308Z,37.60
2023-03-06T22:27:35.756Z,33.38
2023-03-06T22:30:02.481Z,29.00
2023-03-06T22:32:29.011Z,33.92
2023-03-06T22:34:55.571Z,33.97
2023-03-06T22:37:22.094Z,46.08
2023-03-06T22:39:48.590Z,34.42
2023-03-06T22:42:15.063Z,36.33
2023-03-06T22:44:41.552Z,31.67
2023-03-06T22:47:08.324Z,33.67
2023-03-06T22:49:34.799Z,37.72
2023-03-06T22:52:01.242Z,30.98
2023-03-06T22:54:27.718Z,30.13
2023-03-06T22:56:54.181Z,28.23
2023-03-06T22:59:20.674Z,26.48
2023-03-06T23:01:47.119Z,31.35
2023-03-06T23:04:13.615Z,30.15
2023-03-06T23:06:41.174Z,35.47
2023-03-06T23:09:11.604Z,25.65
2023-03-06T23:11:38.140Z,41.25
2023-03-06T23:14:05.925Z,28.13
2023-03-06T23:16:32.925Z,28.08
2023-03-06T23:18:59.703Z,29.48
2023-03-06T23:21:26.218Z,33.15
2023-03-06T23:23:53.395Z,26.10
2023-03-06T23:26:21.536Z,21.10
2023-03-06T23:31:15.848Z,33.83
2023-03-06T23:33:42.618Z,29.10
2023-03-06T23:36:11.019Z,29.13
2023-03-06T23:38:37.911Z,31.42
2023-03-06T23:41:05.598Z,26.20
2023-03-06T23:43:32.194Z,27.20
2023-03-06T23:45:59.201Z,30.08
2023-03-06T23:48:26.764Z,33.70
2023-03-06T23:50:53.597Z,31.23
2023-03-06T23:53:20.298Z,29.52
2023-03-06T23:55:47.897Z,37.35
2023-03-06T23:58:15.683Z,31.00
